createdAt,value
2017-11-13T00:00:54.397Z,0
2017-11-13T00:02:02.488Z,0
2017-11-13T00:03:10.572Z,0
2017-11-13T00:04:18.738Z,0
2017-11-13T00:05:26.745Z,0
2017-11-13T00:06:34.839Z,0
2017-11-13T00:07:42.933Z,0
2017-11-13T00:08:51.416Z,0
2017-11-13T00:09:59.498Z,0
2017-11-13T00:11:07.585Z,0
2017-11-13T00:12:15.679Z,0
2017-11-13T00:13:23.760Z,0
2017-11-13T00:14:31.847Z,0
2017-11-13T00:15:40.312Z,0
2017-11-13T00:16:48.030Z,0
2017-11-13T00:17:56.111Z,0
2017-11-13T00:19:04.203Z,0
2017-11-13T00:20:12.288Z,0
2017-11-13T00:21:20.374Z,0
2017-11-13T00:22:28.466Z,0
2017-11-13T00:23:36.551Z,0
2017-11-13T00:24:44.657Z,0
2017-11-13T00:25:52.725Z,0
2017-11-13T00:27:00.816Z,0
2017-11-13T00:28:08.906Z,0
2017-11-13T00:29:16.994Z,0
2017-11-13T00:30:25.111Z,0
2017-11-13T00:31:33.170Z,0
2017-11-13T00:32:41.254Z,0
2017-11-13T00:33:49.343Z,0
2017-11-13T00:34:57.432Z,0
2017-11-13T00:36:05.520Z,0
2017-11-13T00:37:13.608Z,0
2017-11-13T00:38:21.701Z,0
2017-11-13T00:39:29.783Z,0
2017-11-13T00:40:37.873Z,0
2017-11-13T00:41:45.972Z,0
2017-11-13T00:42:54.064Z,0
2017-11-13T00:44:02.145Z,0
2017-11-13T00:45:10.256Z,0
2017-11-13T00:46:18.320Z,0
2017-11-13T00:47:26.408Z,0
2017-11-13T00:48:34.499Z,0
2017-11-13T00:49:42.582Z,0
2017-11-13T00:50:50.690Z,0
2017-11-13T00:51:58.763Z,0
2017-11-13T00:53:06.850Z,0
2017-11-13T00:54:14.934Z,0
2017-11-13T00:55:23.021Z,0
2017-11-13T00:56:31.119Z,0
2017-11-13T00:57:39.208Z,0
2017-11-13T00:58:47.283Z,0
2017-11-13T00:59:55.371Z,0
2017-11-13T01:01:03.461Z,0
2017-11-13T01:02:11.548Z,0
2017-11-13T01:03:19.642Z,0
2017-11-13T01:04:27.730Z,0
2017-11-13T01:05:35.815Z,0
2017-11-13T01:06:43.903Z,0
2017-11-13T01:07:51.995Z,0
2017-11-13T01:09:00.082Z,0
2017-11-13T01:10:08.178Z,0
2017-11-13T01:11:16.276Z,0
2017-11-13T01:12:24.364Z,0
2017-11-13T01:13:32.454Z,0
2017-11-13T01:14:40.537Z,0
2017-11-13T01:15:48.626Z,0
2017-11-13T01:16:56.711Z,0
2017-11-13T01:18:04.802Z,0
2017-11-13T01:19:12.899Z,0
2017-11-13T01:20:20.996Z,0
2017-11-13T01:21:29.071Z,0
2017-11-13T01:22:37.157Z,0
2017-11-13T01:23:45.242Z,0
2017-11-13T01:24:53.330Z,0
2017-11-13T01:26:01.435Z,0
2017-11-13T01:27:09.508Z,0
2017-11-13T01:28:17.596Z,0
2017-11-13T01:29:25.683Z,0
2017-11-13T01:30:33.773Z,0
2017-11-13T01:31:41.878Z,0
2017-11-13T01:32:49.946Z,0
2017-11-13T01:33:58.033Z,0
2017-11-13T01:35:06.126Z,0
2017-11-13T01:36:14.206Z,0
2017-11-13T01:37:22.294Z,0
2017-11-13T01:38:30.384Z,0
2017-11-13T01:39:38.471Z,0
2017-11-13T01:40:46.559Z,0
2017-11-13T01:41:54.647Z,0
2017-11-13T01:43:02.737Z,0
2017-11-13T01:44:10.900Z,0
2017-11-13T01:45:19.009Z,0
2017-11-13T01:46:27.079Z,0
2017-11-13T01:47:35.178Z,0
2017-11-13T01:48:43.256Z,0
2017-11-13T01:49:51.350Z,0
2017-11-13T01:50:59.437Z,0
2017-11-13T01:52:07.525Z,0
2017-11-13T01:53:15.617Z,0
2017-11-13T01:54:23.712Z,0
2017-11-13T01:55:31.826Z,0
2017-11-13T01:56:39.931Z,0
2017-11-13T01:57:48.004Z,0
2017-11-13T01:58:56.101Z,0
2017-11-13T02:00:04.189Z,0
2017-11-13T02:01:12.587Z,0
2017-11-13T02:02:21.055Z,0
2017-11-13T02:03:28.781Z,0
2017-11-13T02:04:37.001Z,0
2017-11-13T02:05:45.090Z,0
2017-11-13T02:06:53.176Z,0
2017-11-13T02:08:01.263Z,0
2017-11-13T02:09:09.349Z,0
2017-11-13T02:10:17.439Z,0
2017-11-13T02:11:25.524Z,0
2017-11-13T02:12:33.738Z,0
2017-11-13T02:13:41.702Z,0
2017-11-13T02:14:49.799Z,0
2017-11-13T02:15:57.907Z,0
2017-11-13T02:17:05.971Z,0
2017-11-13T02:18:14.058Z,0
2017-11-13T02:19:22.146Z,0
2017-11-13T02:20:30.235Z,0
2017-11-13T02:21:38.321Z,0
2017-11-13T02:22:46.408Z,0
2017-11-13T02:23:54.505Z,0
2017-11-13T02:25:02.600Z,0
2017-11-13T02:26:10.674Z,0
2017-11-13T02:27:18.771Z,0
2017-11-13T02:28:26.847Z,0
2017-11-13T02:29:34.937Z,0
2017-11-13T02:30:43.030Z,0
2017-11-13T02:31:51.115Z,0
2017-11-13T02:32:59.215Z,0
2017-11-13T02:34:07.300Z,0
2017-11-13T02:35:15.385Z,0
2017-11-13T02:36:23.474Z,0
2017-11-13T02:37:31.561Z,0
2017-11-13T02:38:39.676Z,0
2017-11-13T02:39:47.747Z,0
2017-11-13T02:40:55.823Z,0
2017-11-13T02:42:03.914Z,0
2017-11-13T02:43:12.005Z,0
2017-11-13T02:44:20.094Z,0
2017-11-13T02:45:28.195Z,0
2017-11-13T02:46:36.268Z,0
2017-11-13T02:47:44.354Z,0
2017-11-13T02:48:52.443Z,0
2017-11-13T02:50:00.623Z,0
2017-11-13T02:51:08.617Z,0
2017-11-13T02:52:16.715Z,0
2017-11-13T02:53:24.793Z,0
2017-11-13T02:54:32.871Z,0
2017-11-13T02:55:40.968Z,0
2017-11-13T02:57:57.248Z,0
2017-11-13T02:59:05.339Z,0
2017-11-13T03:00:13.427Z,0
2017-11-13T03:01:21.508Z,0
2017-11-13T03:02:29.596Z,0
2017-11-13T03:03:37.683Z,0
2017-11-13T03:04:45.791Z,0
2017-11-13T03:05:53.858Z,0
2017-11-13T03:07:01.946Z,0
2017-11-13T03:08:10.046Z,0
2017-11-13T03:09:18.136Z,0
2017-11-13T03:10:26.221Z,0
2017-11-13T03:11:34.309Z,0
2017-11-13T03:12:42.397Z,0
2017-11-13T03:13:50.482Z,0
2017-11-13T03:14:58.580Z,0
2017-11-13T03:16:06.664Z,0
2017-11-13T03:17:14.764Z,0
2017-11-13T03:18:22.833Z,0
2017-11-13T03:19:30.922Z,0
2017-11-13T03:20:39.007Z,0
2017-11-13T03:21:47.095Z,0
2017-11-13T03:22:55.181Z,0
2017-11-13T03:24:03.271Z,0
2017-11-13T03:25:11.359Z,0
2017-11-13T03:26:19.444Z,0
2017-11-13T03:27:27.530Z,0
2017-11-13T03:28:35.615Z,0
2017-11-13T03:29:43.715Z,0
2017-11-13T03:30:51.797Z,0
2017-11-13T03:31:59.889Z,0
2017-11-13T03:33:07.973Z,0
2017-11-13T03:34:16.095Z,0
2017-11-13T03:35:24.183Z,0
2017-11-13T03:36:32.268Z,0
2017-11-13T03:37:40.356Z,0
2017-11-13T03:38:48.443Z,0
2017-11-13T03:39:56.528Z,0
2017-11-13T03:41:04.619Z,0
2017-11-13T03:42:12.706Z,0
2017-11-13T03:43:20.788Z,0
2017-11-13T03:44:28.877Z,0
2017-11-13T03:45:36.958Z,0
2017-11-13T03:46:45.045Z,0
2017-11-13T03:47:53.132Z,0
2017-11-13T03:49:01.218Z,0
2017-11-13T03:50:09.308Z,0
2017-11-13T03:51:17.394Z,0
2017-11-13T03:52:25.489Z,0
2017-11-13T03:53:33.572Z,0
2017-11-13T03:54:41.920Z,0
2017-11-13T03:55:49.745Z,0
2017-11-13T03:56:57.835Z,0
2017-11-13T03:58:06.005Z,0
2017-11-13T03:59:14.003Z,0
2017-11-13T04:00:22.091Z,0
2017-11-13T04:01:30.178Z,0
2017-11-13T04:02:38.267Z,0
2017-11-13T04:03:46.349Z,0
2017-11-13T04:04:54.436Z,0
2017-11-13T04:06:02.519Z,0
2017-11-13T04:07:10.616Z,0
2017-11-13T04:08:18.701Z,0
2017-11-13T04:09:26.786Z,0
2017-11-13T04:10:34.867Z,0
2017-11-13T04:11:42.976Z,0
2017-11-13T04:12:51.040Z,0
2017-11-13T04:13:59.123Z,0
2017-11-13T04:15:07.208Z,0
2017-11-13T04:16:15.302Z,0
2017-11-13T04:17:23.386Z,0
2017-11-13T04:18:31.468Z,0
2017-11-13T04:19:39.554Z,0
2017-11-13T04:20:47.647Z,0
2017-11-13T04:21:55.728Z,0
2017-11-13T04:23:03.817Z,0
2017-11-13T04:24:11.899Z,0
2017-11-13T04:25:19.983Z,0
2017-11-13T04:26:28.070Z,0
2017-11-13T04:27:36.173Z,0
2017-11-13T04:28:44.244Z,0
2017-11-13T04:29:52.329Z,0
2017-11-13T04:31:00.414Z,0
2017-11-13T04:32:08.505Z,0
2017-11-13T04:33:16.586Z,0
2017-11-13T04:34:24.672Z,0
2017-11-13T04:35:32.762Z,0
2017-11-13T04:36:40.844Z,0
2017-11-13T04:37:48.930Z,0
2017-11-13T04:38:57.017Z,0
2017-11-13T04:40:05.109Z,0
2017-11-13T04:41:13.189Z,0
2017-11-13T04:42:21.273Z,0
2017-11-13T04:43:29.357Z,0
2017-11-13T04:44:37.444Z,0
2017-11-13T04:45:45.533Z,0
2017-11-13T04:46:53.616Z,0
2017-11-13T04:48:01.739Z,0
2017-11-13T04:49:09.788Z,0
2017-11-13T04:50:17.898Z,0
2017-11-13T04:51:25.958Z,0
2017-11-13T04:52:34.044Z,0
2017-11-13T04:53:42.153Z,0
2017-11-13T04:54:50.238Z,0
2017-11-13T04:55:58.324Z,0
2017-11-13T04:57:06.410Z,0
2017-11-13T04:58:14.501Z,0
2017-11-13T04:59:22.604Z,0
2017-11-13T05:00:30.679Z,0
2017-11-13T05:01:38.786Z,0
2017-11-13T05:02:46.853Z,0
2017-11-13T05:03:54.938Z,0
2017-11-13T05:05:03.025Z,0
2017-11-13T05:06:11.112Z,0
2017-11-13T05:07:19.199Z,0
2017-11-13T05:08:27.290Z,0
2017-11-13T05:09:35.386Z,0
2017-11-13T05:10:43.471Z,0
2017-11-13T05:11:51.556Z,0
2017-11-13T05:12:59.643Z,0
2017-11-13T05:14:07.731Z,0
2017-11-13T05:15:15.829Z,0
2017-11-13T05:16:23.899Z,0
2017-11-13T05:17:31.987Z,0
2017-11-13T05:18:40.077Z,0
2017-11-13T05:19:48.156Z,0
2017-11-13T05:20:56.241Z,0
2017-11-13T05:22:04.328Z,0
2017-11-13T05:23:12.417Z,0
2017-11-13T05:24:20.498Z,0
2017-11-13T05:25:28.583Z,0
2017-11-13T05:26:36.676Z,0
2017-11-13T05:27:44.757Z,0
2017-11-13T05:28:52.844Z,0
2017-11-13T05:30:00.935Z,0
2017-11-13T05:31:09.029Z,0
2017-11-13T05:32:17.112Z,0
2017-11-13T05:33:25.397Z,0
2017-11-13T05:34:33.294Z,0
2017-11-13T05:35:41.380Z,0
2017-11-13T05:36:49.468Z,0
2017-11-13T05:37:57.546Z,0
2017-11-13T05:39:05.641Z,0
2017-11-13T05:40:13.729Z,0
2017-11-13T05:41:22.238Z,0
2017-11-13T05:42:29.893Z,0
2017-11-13T05:43:37.979Z,0
2017-11-13T05:44:46.068Z,0
2017-11-13T05:45:54.161Z,0
2017-11-13T05:47:02.245Z,0
2017-11-13T05:48:10.333Z,0
2017-11-13T05:49:18.416Z,0
2017-11-13T05:50:26.500Z,0
2017-11-13T05:51:34.594Z,0
2017-11-13T05:52:42.671Z,0
2017-11-13T05:53:51.195Z,0
2017-11-13T05:54:58.843Z,0
2017-11-13T05:56:06.941Z,0
2017-11-13T05:57:15.023Z,0
2017-11-13T05:58:23.109Z,0
2017-11-13T05:59:31.211Z,0
2017-11-13T06:00:39.282Z,0
2017-11-13T06:01:47.366Z,0
2017-11-13T06:02:55.454Z,0
2017-11-13T06:04:03.538Z,0
2017-11-13T06:05:11.638Z,0
2017-11-13T06:06:19.711Z,0
2017-11-13T06:07:27.793Z,0
2017-11-13T06:08:35.877Z,0
2017-11-13T06:09:43.961Z,0
2017-11-13T06:10:52.047Z,0
2017-11-13T06:12:00.599Z,0
2017-11-13T06:13:08.221Z,0
2017-11-13T06:14:16.306Z,0
2017-11-13T06:15:24.390Z,0
2017-11-13T06:16:32.476Z,0
2017-11-13T06:17:40.559Z,0
2017-11-13T06:18:48.662Z,0
2017-11-13T06:19:56.731Z,0
2017-11-13T06:21:04.829Z,0
2017-11-13T06:22:12.904Z,0
2017-11-13T06:23:20.989Z,0
2017-11-13T06:24:29.074Z,0
2017-11-13T06:25:37.184Z,0
2017-11-13T06:26:45.265Z,0
2017-11-13T06:27:53.351Z,0
2017-11-13T06:29:01.442Z,0
2017-11-13T06:30:09.536Z,0
2017-11-13T06:31:17.623Z,0
2017-11-13T06:32:25.713Z,0
2017-11-13T06:33:33.796Z,0
2017-11-13T06:34:41.880Z,0
2017-11-13T06:35:49.965Z,0
2017-11-13T06:36:58.053Z,0
2017-11-13T06:38:06.138Z,0
2017-11-13T06:39:14.222Z,0
2017-11-13T06:40:22.312Z,0
2017-11-13T06:41:30.391Z,0
2017-11-13T06:42:38.478Z,0
2017-11-13T06:43:46.569Z,0
2017-11-13T06:44:54.656Z,0
2017-11-13T06:46:02.745Z,0
2017-11-13T06:47:10.833Z,0
2017-11-13T06:48:18.913Z,4
2017-11-13T06:49:26.993Z,4
2017-11-13T06:50:35.217Z,4
2017-11-13T06:51:43.300Z,4
2017-11-13T06:52:51.388Z,4
2017-11-13T06:53:59.484Z,4
2017-11-13T06:55:07.572Z,4
2017-11-13T06:56:15.666Z,4
2017-11-13T06:57:23.748Z,4
2017-11-13T06:58:31.841Z,4
2017-11-13T06:59:39.933Z,4
2017-11-13T07:00:48.016Z,4
2017-11-13T07:01:56.101Z,4
2017-11-13T07:03:04.207Z,4
2017-11-13T07:04:12.277Z,4
2017-11-13T07:05:20.360Z,0
2017-11-13T07:06:28.454Z,0
2017-11-13T07:07:36.533Z,0
2017-11-13T07:08:44.616Z,0
2017-11-13T07:09:52.728Z,0
2017-11-13T07:11:00.801Z,0
2017-11-13T07:12:08.891Z,0
2017-11-13T07:13:16.979Z,0
2017-11-13T07:14:25.057Z,0
2017-11-13T07:15:33.151Z,4
2017-11-13T07:16:41.233Z,0
2017-11-13T07:17:49.316Z,4
2017-11-13T07:18:57.405Z,8
2017-11-13T07:20:05.514Z,8
2017-11-13T07:21:13.577Z,8
2017-11-13T07:22:21.681Z,8
2017-11-13T07:23:29.893Z,4
2017-11-13T07:24:37.914Z,4
2017-11-13T07:25:45.918Z,4
2017-11-13T07:26:54.002Z,4
2017-11-13T07:28:02.089Z,0
2017-11-13T07:29:10.175Z,0
2017-11-13T07:30:18.261Z,4
2017-11-13T07:31:26.349Z,4
2017-11-13T07:32:34.433Z,8
2017-11-13T07:33:42.524Z,4
2017-11-13T07:34:50.605Z,4
2017-11-13T07:35:58.709Z,4
2017-11-13T07:37:06.774Z,4
2017-11-13T07:38:14.865Z,8
2017-11-13T07:39:22.948Z,8
2017-11-13T07:40:31.033Z,8
2017-11-13T07:41:39.121Z,4
2017-11-13T07:42:47.208Z,4
2017-11-13T07:43:55.291Z,4
2017-11-13T07:45:03.380Z,8
2017-11-13T07:46:11.462Z,4
2017-11-13T07:47:19.573Z,8
2017-11-13T07:48:27.651Z,4
2017-11-13T07:49:35.747Z,8
2017-11-13T07:50:43.823Z,12
2017-11-13T07:51:51.931Z,16
2017-11-13T07:52:59.997Z,16
2017-11-13T07:54:08.081Z,16
2017-11-13T07:55:16.166Z,16
2017-11-13T07:56:24.275Z,16
2017-11-13T07:57:32.338Z,12
2017-11-13T07:58:40.425Z,12
2017-11-13T07:59:48.512Z,12
2017-11-13T08:00:56.597Z,12
2017-11-13T08:02:04.691Z,12
2017-11-13T08:03:13.176Z,8
2017-11-13T08:04:20.948Z,12
2017-11-13T08:05:29.033Z,8
2017-11-13T08:06:37.120Z,8
2017-11-13T08:07:45.207Z,8
2017-11-13T08:08:53.289Z,12
2017-11-13T08:10:01.393Z,16
2017-11-13T08:11:09.532Z,16
2017-11-13T08:12:17.558Z,12
2017-11-13T08:13:25.642Z,12
2017-11-13T08:14:33.749Z,12
2017-11-13T08:15:41.816Z,8
2017-11-13T08:16:49.908Z,12
2017-11-13T08:17:57.985Z,16
2017-11-13T08:19:06.094Z,12
2017-11-13T08:20:14.157Z,20
2017-11-13T08:21:22.244Z,20
2017-11-13T08:22:30.345Z,24
2017-11-13T08:23:38.417Z,20
2017-11-13T08:24:46.504Z,20
2017-11-13T08:25:54.611Z,24
2017-11-13T08:27:02.691Z,36
2017-11-13T08:28:10.765Z,36
2017-11-13T08:29:18.851Z,40
2017-11-13T08:30:26.938Z,40
2017-11-13T08:31:35.025Z,36
2017-11-13T08:32:43.111Z,32
2017-11-13T08:33:51.203Z,32
2017-11-13T08:34:59.283Z,36
2017-11-13T08:36:07.375Z,36
2017-11-13T08:37:15.459Z,32
2017-11-13T08:38:23.540Z,36
2017-11-13T08:39:31.704Z,36
2017-11-13T08:40:39.712Z,36
2017-11-13T08:41:47.804Z,36
2017-11-13T08:42:55.900Z,36
2017-11-13T08:44:03.986Z,32
2017-11-13T08:45:12.080Z,36
2017-11-13T08:46:20.162Z,36
2017-11-13T08:47:28.248Z,36
2017-11-13T08:48:36.332Z,36
2017-11-13T08:49:44.418Z,36
2017-11-13T08:50:52.504Z,36
2017-11-13T08:52:00.603Z,40
2017-11-13T08:53:08.688Z,36
2017-11-13T08:54:16.778Z,36
2017-11-13T08:55:24.860Z,40
2017-11-13T08:56:32.951Z,40
2017-11-13T08:57:41.033Z,28
2017-11-13T08:58:49.149Z,28
2017-11-13T08:59:57.242Z,32
2017-11-13T09:01:05.336Z,32
2017-11-13T09:02:13.419Z,24
2017-11-13T09:03:21.508Z,24
2017-11-13T09:04:29.596Z,20
2017-11-13T09:05:37.699Z,16
2017-11-13T09:06:45.766Z,12
2017-11-13T09:07:53.869Z,8
2017-11-13T09:09:01.946Z,12
2017-11-13T09:10:10.036Z,8
2017-11-13T09:11:18.120Z,12
2017-11-13T09:12:26.206Z,16
2017-11-13T09:13:34.293Z,16
2017-11-13T09:14:42.382Z,24
2017-11-13T09:15:50.466Z,24
2017-11-13T09:16:58.549Z,32
2017-11-13T09:18:06.636Z,44
2017-11-13T09:19:14.742Z,44
2017-11-13T09:20:22.811Z,40
2017-11-13T09:21:30.895Z,24
2017-11-13T09:22:39.071Z,20
2017-11-13T09:23:47.069Z,16
2017-11-13T09:24:55.156Z,16
2017-11-13T09:26:03.244Z,20
2017-11-13T09:27:11.326Z,24
2017-11-13T09:28:19.413Z,28
2017-11-13T09:29:27.498Z,28
2017-11-13T09:30:35.593Z,24
2017-11-13T09:31:43.683Z,32
2017-11-13T09:32:51.767Z,28
2017-11-13T09:33:59.850Z,28
2017-11-13T09:35:07.937Z,32
2017-11-13T09:36:16.022Z,28
2017-11-13T09:37:24.115Z,24
2017-11-13T09:38:32.203Z,32
2017-11-13T09:39:40.280Z,24
2017-11-13T09:40:48.377Z,20
2017-11-13T09:41:56.454Z,20
2017-11-13T09:43:04.541Z,20
2017-11-13T09:44:12.625Z,20
2017-11-13T09:45:20.724Z,20
2017-11-13T09:46:28.809Z,20
2017-11-13T09:47:36.891Z,24
2017-11-13T09:48:44.980Z,28
2017-11-13T09:49:53.066Z,24
2017-11-13T09:51:01.148Z,24
2017-11-13T09:52:09.238Z,28
2017-11-13T09:53:17.320Z,28
2017-11-13T09:54:25.411Z,32
2017-11-13T09:55:33.495Z,36
2017-11-13T09:56:41.581Z,28
2017-11-13T09:57:49.666Z,28
2017-11-13T09:58:57.757Z,28
2017-11-13T10:00:05.840Z,32
2017-11-13T10:01:13.924Z,28
2017-11-13T10:02:22.012Z,24
2017-11-13T10:03:30.096Z,24
2017-11-13T10:04:38.181Z,20
2017-11-13T10:05:46.269Z,20
2017-11-13T10:06:54.356Z,20
2017-11-13T10:08:02.441Z,20
2017-11-13T10:09:10.530Z,20
2017-11-13T10:10:18.625Z,24
2017-11-13T10:11:26.726Z,24
2017-11-13T10:12:34.798Z,28
2017-11-13T10:13:42.887Z,24
2017-11-13T10:14:50.971Z,24
2017-11-13T10:15:59.059Z,20
2017-11-13T10:17:07.142Z,20
2017-11-13T10:18:15.227Z,16
2017-11-13T10:19:23.312Z,16
2017-11-13T10:20:31.399Z,16
2017-11-13T10:21:39.486Z,24
2017-11-13T10:22:47.578Z,24
2017-11-13T10:23:55.679Z,28
2017-11-13T10:25:03.800Z,28
2017-11-13T10:26:11.835Z,28
2017-11-13T10:27:19.939Z,24
2017-11-13T10:28:28.012Z,28
2017-11-13T10:29:36.096Z,24
2017-11-13T10:30:44.180Z,24
2017-11-13T10:31:52.265Z,28
2017-11-13T10:33:00.352Z,32
2017-11-13T10:34:08.440Z,28
2017-11-13T10:35:16.525Z,28
2017-11-13T10:36:24.609Z,44
2017-11-13T10:37:32.696Z,28
2017-11-13T10:38:40.778Z,24
2017-11-13T10:39:48.897Z,24
2017-11-13T10:40:56.961Z,28
2017-11-13T10:42:05.048Z,28
2017-11-13T10:43:13.135Z,28
2017-11-13T10:44:21.220Z,28
2017-11-13T10:45:29.309Z,40
2017-11-13T10:46:37.390Z,32
2017-11-13T10:47:45.476Z,32
2017-11-13T10:48:53.564Z,32
2017-11-13T10:50:01.928Z,32
2017-11-13T10:51:09.741Z,44
2017-11-13T10:52:17.820Z,48
2017-11-13T10:53:25.908Z,48
2017-11-13T10:54:33.995Z,32
2017-11-13T10:55:42.367Z,36
2017-11-13T10:56:50.456Z,36
2017-11-13T10:57:58.538Z,36
2017-11-13T10:59:06.624Z,32
2017-11-13T11:00:14.725Z,32
2017-11-13T11:01:22.799Z,40
2017-11-13T11:02:30.902Z,24
2017-11-13T11:03:38.971Z,24
2017-11-13T11:04:47.060Z,24
2017-11-13T11:05:55.232Z,24
2017-11-13T11:07:03.226Z,24
2017-11-13T11:08:11.314Z,20
2017-11-13T11:09:19.396Z,32
2017-11-13T11:10:27.481Z,24
2017-11-13T11:11:35.568Z,36
2017-11-13T11:12:43.657Z,32
2017-11-13T11:13:51.742Z,36
2017-11-13T11:14:59.826Z,32
2017-11-13T11:16:07.917Z,28
2017-11-13T11:17:16.000Z,28
2017-11-13T11:18:24.084Z,28
2017-11-13T11:19:32.171Z,36
2017-11-13T11:20:40.262Z,36
2017-11-13T11:21:48.343Z,32
2017-11-13T11:22:56.426Z,32
2017-11-13T11:24:04.513Z,32
2017-11-13T11:25:12.601Z,28
2017-11-13T11:26:20.700Z,32
2017-11-13T11:27:28.788Z,28
2017-11-13T11:28:36.940Z,28
2017-11-13T11:29:44.954Z,32
2017-11-13T11:30:53.042Z,28
2017-11-13T11:32:01.133Z,28
2017-11-13T11:33:09.214Z,32
2017-11-13T11:34:17.301Z,32
2017-11-13T11:35:25.386Z,32
2017-11-13T11:36:33.471Z,24
2017-11-13T11:37:41.557Z,32
2017-11-13T11:38:49.668Z,24
2017-11-13T11:39:57.731Z,36
2017-11-13T11:41:05.816Z,32
2017-11-13T11:42:13.979Z,24
2017-11-13T11:43:22.066Z,32
2017-11-13T11:44:30.148Z,32
2017-11-13T11:45:38.236Z,28
2017-11-13T11:46:46.322Z,36
2017-11-13T11:47:54.405Z,32
2017-11-13T11:49:02.491Z,32
2017-11-13T11:50:10.579Z,36
2017-11-13T11:51:18.664Z,32
2017-11-13T11:52:26.751Z,28
2017-11-13T11:53:35.109Z,20
2017-11-13T11:54:42.924Z,32
2017-11-13T11:55:51.009Z,32
2017-11-13T11:56:59.094Z,20
2017-11-13T11:58:07.178Z,32
2017-11-13T11:59:15.263Z,36
2017-11-13T12:00:23.350Z,24
2017-11-13T12:01:31.439Z,16
2017-11-13T12:02:39.526Z,16
2017-11-13T12:03:47.611Z,32
2017-11-13T12:04:55.696Z,28
2017-11-13T12:06:03.781Z,16
2017-11-13T12:07:11.870Z,20
2017-11-13T12:08:19.949Z,20
2017-11-13T12:09:28.038Z,16
2017-11-13T12:10:36.125Z,32
2017-11-13T12:11:44.212Z,28
2017-11-13T12:12:52.295Z,20
2017-11-13T12:14:00.383Z,28
2017-11-13T12:15:08.468Z,32
2017-11-13T12:16:16.552Z,28
2017-11-13T12:17:24.642Z,32
2017-11-13T12:18:32.743Z,36
2017-11-13T12:19:40.812Z,36
2017-11-13T12:20:48.916Z,36
2017-11-13T12:21:56.983Z,32
2017-11-13T12:23:05.075Z,20
2017-11-13T12:24:13.161Z,16
2017-11-13T12:25:21.245Z,12
2017-11-13T12:26:29.330Z,16
2017-11-13T12:27:37.426Z,32
2017-11-13T12:28:45.514Z,16
2017-11-13T12:29:53.599Z,20
2017-11-13T12:31:01.685Z,24
2017-11-13T12:32:09.776Z,16
2017-11-13T12:33:17.925Z,36
2017-11-13T12:34:25.939Z,36
2017-11-13T12:35:34.025Z,36
2017-11-13T12:36:42.129Z,40
2017-11-13T12:37:50.202Z,44
2017-11-13T12:38:58.283Z,28
2017-11-13T12:40:06.373Z,36
2017-11-13T12:41:14.456Z,32
2017-11-13T12:42:22.547Z,36
2017-11-13T12:43:30.625Z,16
2017-11-13T12:44:38.712Z,12
2017-11-13T12:45:46.810Z,12
2017-11-13T12:46:54.893Z,12
2017-11-13T12:48:02.997Z,8
2017-11-13T12:49:11.068Z,12
2017-11-13T12:50:19.150Z,8
2017-11-13T12:51:27.233Z,8
2017-11-13T12:52:35.320Z,12
2017-11-13T12:53:43.404Z,12
2017-11-13T12:54:51.490Z,8
2017-11-13T12:55:59.577Z,12
2017-11-13T12:57:07.688Z,12
2017-11-13T12:58:15.760Z,12
2017-11-13T12:59:23.848Z,12
2017-11-13T13:00:31.929Z,12
2017-11-13T13:01:40.016Z,12
2017-11-13T13:02:48.099Z,12
2017-11-13T13:03:56.186Z,16
2017-11-13T13:05:04.274Z,24
2017-11-13T13:06:12.357Z,12
2017-11-13T13:07:20.440Z,28
2017-11-13T13:08:28.524Z,24
2017-11-13T13:09:36.616Z,28
2017-11-13T13:10:44.719Z,28
2017-11-13T13:11:52.817Z,28
2017-11-13T13:13:00.882Z,24
2017-11-13T13:14:08.971Z,24
2017-11-13T13:15:17.053Z,24
2017-11-13T13:16:25.138Z,28
2017-11-13T13:17:33.222Z,28
2017-11-13T13:18:41.310Z,32
2017-11-13T13:19:49.407Z,32
2017-11-13T13:20:57.490Z,20
2017-11-13T13:22:05.574Z,32
2017-11-13T13:23:13.658Z,16
2017-11-13T13:24:21.748Z,24
2017-11-13T13:25:29.829Z,28
2017-11-13T13:26:37.916Z,24
2017-11-13T13:27:46.002Z,28
2017-11-13T13:28:54.088Z,28
2017-11-13T13:30:02.172Z,28
2017-11-13T13:31:10.258Z,28
2017-11-13T13:32:18.342Z,28
2017-11-13T13:33:26.426Z,24
2017-11-13T13:34:34.512Z,24
2017-11-13T13:35:42.600Z,28
2017-11-13T13:36:50.713Z,28
2017-11-13T13:37:58.779Z,28
2017-11-13T13:39:06.865Z,36
2017-11-13T13:40:15.069Z,32
2017-11-13T13:41:23.036Z,32
2017-11-13T13:42:31.123Z,20
2017-11-13T13:43:39.211Z,16
2017-11-13T13:44:47.295Z,12
2017-11-13T13:45:55.394Z,12
2017-11-13T13:47:03.467Z,16
2017-11-13T13:48:11.560Z,12
2017-11-13T13:49:19.649Z,8
2017-11-13T13:50:27.731Z,12
2017-11-13T13:51:36.003Z,8
2017-11-13T13:52:43.906Z,8
2017-11-13T13:53:51.987Z,12
2017-11-13T13:55:00.074Z,12
2017-11-13T13:56:08.160Z,12
2017-11-13T13:57:16.245Z,12
2017-11-13T13:58:24.333Z,12
2017-11-13T13:59:32.419Z,8
2017-11-13T14:00:40.498Z,12
2017-11-13T14:01:48.584Z,12
2017-11-13T14:02:56.675Z,16
2017-11-13T14:04:04.755Z,12
2017-11-13T14:05:12.846Z,12
2017-11-13T14:06:20.939Z,20
2017-11-13T14:07:29.021Z,40
2017-11-13T14:08:37.106Z,52
2017-11-13T14:09:45.199Z,36
2017-11-13T14:10:53.275Z,24
2017-11-13T14:12:01.363Z,16
2017-11-13T14:13:09.444Z,20
2017-11-13T14:14:17.534Z,12
2017-11-13T14:15:25.622Z,8
2017-11-13T14:16:33.717Z,8
2017-11-13T14:17:41.785Z,12
2017-11-13T14:18:50.121Z,8
2017-11-13T14:19:57.955Z,8
2017-11-13T14:21:06.047Z,8
2017-11-13T14:22:14.128Z,8
2017-11-13T14:23:22.208Z,8
2017-11-13T14:24:30.295Z,8
2017-11-13T14:25:38.378Z,8
2017-11-13T14:26:46.464Z,8
2017-11-13T14:27:54.548Z,8
2017-11-13T14:29:02.744Z,8
2017-11-13T14:30:10.738Z,8
2017-11-13T14:31:18.834Z,4
2017-11-13T14:32:26.922Z,8
2017-11-13T14:33:34.994Z,8
2017-11-13T14:34:43.084Z,12
2017-11-13T14:35:51.164Z,12
2017-11-13T14:36:59.252Z,16
2017-11-13T14:38:07.336Z,12
2017-11-13T14:39:15.427Z,12
2017-11-13T14:40:23.505Z,12
2017-11-13T14:41:31.590Z,12
2017-11-13T14:42:39.691Z,12
2017-11-13T14:43:47.764Z,8
2017-11-13T14:44:55.870Z,4
2017-11-13T14:46:03.941Z,4
2017-11-13T14:47:12.023Z,4
2017-11-13T14:48:20.103Z,4
2017-11-13T14:49:28.206Z,4
2017-11-13T14:50:36.273Z,4
2017-11-13T14:51:44.359Z,4
2017-11-13T14:52:52.442Z,4
2017-11-13T14:54:00.527Z,8
2017-11-13T14:55:08.615Z,8
2017-11-13T14:56:16.706Z,8
2017-11-13T14:57:24.784Z,8
2017-11-13T14:58:32.867Z,8
2017-11-13T14:59:40.954Z,8
2017-11-13T15:00:49.045Z,4
2017-11-13T15:01:57.129Z,8
2017-11-13T15:03:05.212Z,4
2017-11-13T15:04:13.299Z,8
2017-11-13T15:05:21.382Z,4
2017-11-13T15:06:29.467Z,4
2017-11-13T15:07:37.551Z,4
2017-11-13T15:08:45.635Z,0
2017-11-13T15:09:53.721Z,4
2017-11-13T15:11:01.816Z,4
2017-11-13T15:12:09.922Z,4
2017-11-13T15:13:17.984Z,4
2017-11-13T15:14:26.072Z,4
2017-11-13T15:15:34.160Z,0
2017-11-13T15:16:42.244Z,4
2017-11-13T15:17:50.324Z,0
2017-11-13T15:18:58.411Z,0
2017-11-13T15:20:06.497Z,4
2017-11-13T15:21:14.590Z,0
2017-11-13T15:22:22.682Z,4
2017-11-13T15:23:30.764Z,0
2017-11-13T15:24:38.848Z,0
2017-11-13T15:25:46.940Z,0
2017-11-13T15:26:55.018Z,0
2017-11-13T15:28:03.112Z,0
2017-11-13T15:29:11.199Z,0
2017-11-13T15:30:19.283Z,0
2017-11-13T15:31:27.372Z,0
2017-11-13T15:32:35.452Z,0
2017-11-13T15:33:43.545Z,0
2017-11-13T15:34:51.623Z,4
2017-11-13T15:35:59.709Z,4
2017-11-13T15:37:07.791Z,4
2017-11-13T15:38:15.883Z,4
2017-11-13T15:39:24.040Z,4
2017-11-13T15:40:32.054Z,4
2017-11-13T15:41:40.138Z,4
2017-11-13T15:42:48.225Z,4
2017-11-13T15:43:56.307Z,0
2017-11-13T15:45:04.393Z,0
2017-11-13T15:46:12.477Z,0
2017-11-13T15:47:20.560Z,0
2017-11-13T15:48:28.651Z,0
2017-11-13T15:49:36.734Z,0
2017-11-13T15:50:44.822Z,0
2017-11-13T15:51:52.899Z,0
2017-11-13T15:53:00.984Z,0
2017-11-13T15:54:09.070Z,0
2017-11-13T15:55:17.150Z,0
2017-11-13T15:56:25.235Z,0
2017-11-13T15:57:33.330Z,0
2017-11-13T15:58:41.435Z,0
2017-11-13T15:59:49.508Z,0
2017-11-13T16:00:57.591Z,0
2017-11-13T16:02:05.737Z,0
2017-11-13T16:03:13.761Z,0
2017-11-13T16:04:21.845Z,0
2017-11-13T16:05:29.929Z,0
2017-11-13T16:06:38.016Z,0
2017-11-13T16:07:46.100Z,0
2017-11-13T16:08:54.190Z,0
2017-11-13T16:10:02.272Z,0
2017-11-13T16:11:10.355Z,0
2017-11-13T16:12:18.440Z,0
2017-11-13T16:13:26.525Z,0
2017-11-13T16:14:34.607Z,0
2017-11-13T16:15:42.697Z,0
2017-11-13T16:16:50.796Z,0
2017-11-13T16:17:58.862Z,0
2017-11-13T16:19:06.950Z,0
2017-11-13T16:20:15.033Z,0
2017-11-13T16:21:23.115Z,0
2017-11-13T16:22:31.198Z,0
2017-11-13T16:23:39.284Z,0
2017-11-13T16:24:47.635Z,0
2017-11-13T16:25:55.722Z,0
2017-11-13T16:27:03.803Z,0
2017-11-13T16:28:11.886Z,0
2017-11-13T16:29:19.971Z,0
2017-11-13T16:30:28.054Z,0
2017-11-13T16:31:36.141Z,0
2017-11-13T16:32:44.233Z,0
2017-11-13T16:33:52.317Z,0